createdAt,value
2022-09-24T04:18:01.466Z,0.1
2022-09-24T04:20:01.168Z,0.2
2022-09-24T04:21:01.101Z,0.3
2022-09-24T04:23:01.313Z,0.4
2022-09-24T04:24:01.160Z,0.5
2022-09-24T04:26:01.108Z,0.7
2022-09-24T04:27:01.102Z,0.8
2022-09-24T04:28:01.304Z,1.0
2022-09-24T04:29:01.118Z,1.2
2022-09-24T04:30:01.143Z,1.4
2022-09-24T04:31:01.158Z,1.7
2022-09-24T04:32:01.098Z,2.1
2022-09-24T04:33:01.313Z,2.5
2022-09-24T04:34:02.147Z,2.9
2022-09-24T04:35:05.450Z,3.3
2022-09-24T04:36:01.102Z,3.9
2022-09-24T04:37:01.110Z,4.6
2022-09-24T04:38:01.319Z,5.6
2022-09-24T04:39:01.699Z,6.6
2022-09-24T04:40:01.148Z,7.6
2022-09-24T04:41:01.117Z,9.1
2022-09-24T04:42:01.102Z,10.5
2022-09-24T04:43:01.315Z,12.8
2022-09-24T04:44:01.177Z,15.1
2022-09-24T04:45:01.137Z,17.3
2022-09-24T04:46:01.188Z,20.7
2022-09-24T04:47:01.148Z,24.0
2022-09-24T04:48:01.330Z,28.9
2022-09-24T04:49:01.204Z,33.7
2022-09-24T04:50:01.170Z,38.6
2022-09-24T04:51:01.126Z,45.6
2022-09-24T04:52:01.114Z,52.6
2022-09-24T04:53:01.322Z,62.5
2022-09-24T04:54:06.763Z,72.5
2022-09-24T04:55:01.151Z,82.4
2022-09-24T04:56:01.117Z,96.2
2022-09-24T04:57:01.113Z,110.0
2022-09-24T04:58:01.311Z,128.7
2022-09-24T04:59:02.115Z,147.3
2022-09-24T05:00:01.153Z,166.0
2022-09-24T05:01:01.110Z,190.9
2022-09-24T05:02:03.819Z,215.7
2022-09-24T05:03:16.206Z,247.7
2022-09-24T05:04:01.334Z,279.7
2022-09-24T05:05:01.134Z,311.7
2022-09-24T05:06:01.136Z,351.5
2022-09-24T05:07:01.120Z,391.2
2022-09-24T05:08:01.114Z,439.7
2022-09-24T05:31:01.115Z,3059.0
2022-09-24T05:32:00.994Z,3104.0
2022-09-24T05:33:00.995Z,3201.0
2022-09-24T05:34:00.998Z,3259.2
2022-09-24T05:35:01.846Z,3298.0
2022-09-24T05:36:01.099Z,3372.4
2022-09-24T05:37:01.003Z,3428.3
2022-09-24T05:38:01.008Z,3506.7
2022-09-24T05:39:01.051Z,3569.4
2022-09-24T05:40:01.514Z,3620.7
2022-09-24T05:41:01.388Z,3695.1
2022-09-24T05:42:00.927Z,3758.0
2022-09-24T05:43:00.992Z,3852.2
2022-09-24T05:44:00.941Z,3933.9
2022-09-24T05:45:02.220Z,4077.4
2022-09-24T05:46:01.365Z,4247.5
2022-09-24T05:47:01.019Z,4417.7
2022-09-24T05:48:01.004Z,4617.3
2022-09-24T05:49:01.022Z,4817.0
2022-09-24T05:50:01.188Z,5016.7
2022-09-24T05:51:01.172Z,5253.7
2022-09-24T05:52:00.941Z,5490.7
2022-09-24T05:53:00.934Z,5774.8
2022-09-24T05:54:00.940Z,6058.9
2022-09-24T05:55:01.303Z,6343.1
2022-09-24T05:56:00.948Z,6669.6
2022-09-24T05:57:00.943Z,6996.1
2022-09-24T05:58:00.942Z,7360.6
2022-09-24T05:59:01.074Z,7725.1
2022-09-24T06:01:01.205Z,8482.7
2022-09-24T06:02:00.998Z,8875.9
2022-09-24T06:03:00.979Z,9270.6
2022-09-24T06:04:04.730Z,9665.3
2022-09-24T06:05:01.210Z,10059.9
2022-09-24T06:06:00.959Z,10445.9
2022-09-24T06:07:00.945Z,10831.9
2022-09-24T06:08:00.967Z,11192.0
2022-09-24T06:09:01.029Z,11552.1
2022-09-24T06:10:01.722Z,11912.1
2022-09-24T06:11:00.946Z,12244.7
2022-09-24T06:12:00.944Z,12577.3
2022-09-24T06:13:00.940Z,12849.3
2022-09-24T06:14:00.945Z,13121.3
2022-09-24T06:16:00.955Z,13591.3
2022-09-24T06:17:00.941Z,13789.2
2022-09-24T06:18:00.984Z,13941.9
2022-09-24T06:19:01.036Z,14094.5
2022-09-24T06:20:01.849Z,14247.2
2022-09-24T06:21:01.042Z,14360.7
2022-09-24T06:22:01.011Z,14474.1
2022-09-24T06:23:00.944Z,14560.6
2022-09-24T06:24:01.009Z,14647.1
2022-09-24T06:26:00.946Z,14798.7
2022-09-24T06:27:01.005Z,14863.9
2022-09-24T06:28:01.053Z,14932.5
2022-09-24T06:29:04.794Z,15001.0
2022-09-24T06:31:01.131Z,15154.4
2022-09-24T06:32:01.012Z,15239.3
2022-09-24T06:33:01.013Z,15339.9
2022-09-24T06:34:01.061Z,15440.5
2022-09-24T06:36:00.946Z,15657.7
2022-09-24T06:37:01.087Z,15774.3
2022-09-24T06:38:01.109Z,15909.1
2022-09-24T06:39:01.167Z,16043.9
2022-09-24T06:40:01.881Z,16178.7
2022-09-24T06:41:01.097Z,16336.9
2022-09-24T06:42:00.953Z,16495.1
2022-09-24T06:43:01.089Z,16685.1
2022-09-24T06:44:01.040Z,16875.1
2022-09-24T06:45:02.328Z,17065.1
2022-09-24T06:46:01.012Z,17292.2
2022-09-24T06:47:01.088Z,17519.3
2022-09-24T06:48:01.014Z,17777.7
2022-09-24T06:49:01.121Z,18036.0
2022-09-24T06:51:01.029Z,18596.1
2022-09-24T06:52:01.021Z,18897.9
2022-09-24T06:53:01.026Z,19269.8
2022-09-24T06:54:01.093Z,19641.7
2022-09-24T06:55:01.378Z,20013.5
2022-09-24T06:56:01.030Z,20460.3
2022-09-24T06:57:01.095Z,20907.0
2022-09-24T06:58:01.088Z,21416.1
2022-09-24T06:59:01.026Z,21925.3
2022-09-24T07:01:01.126Z,23011.3
2022-09-24T07:02:01.033Z,23588.3
2022-09-24T07:03:01.020Z,24249.5
2022-09-24T07:04:01.091Z,24910.7
2022-09-24T07:05:02.547Z,25571.9
2022-09-24T07:06:01.143Z,26312.5
2022-09-24T07:07:01.113Z,27053.2
2022-09-24T07:08:01.081Z,27825.3
2022-09-24T07:09:01.083Z,28597.5
2022-09-24T07:11:01.041Z,30152.9
2022-09-24T07:12:01.019Z,30936.1
2022-09-24T07:13:01.078Z,31737.2
2022-09-24T07:14:01.023Z,32538.3
2022-09-24T07:15:02.438Z,33339.3
2022-09-24T07:16:01.027Z,34177.5
2022-09-24T07:17:01.030Z,35015.7
2022-09-24T07:18:01.090Z,35907.4
2022-09-24T07:19:01.087Z,36799.1
2022-09-24T07:20:02.600Z,37690.7
2022-09-24T07:21:01.025Z,38655.2
2022-09-24T07:22:01.047Z,39619.7
2022-09-24T07:23:01.020Z,40698.1
2022-09-24T07:24:02.052Z,41776.5
2022-09-24T07:26:00.960Z,44035.4
2022-09-24T07:27:00.962Z,45215.9
2022-09-24T07:28:00.966Z,46488.3
2022-09-24T07:29:00.977Z,47760.6
2022-09-24T07:31:01.127Z,50392.9
2022-09-24T07:32:01.044Z,51752.9
2022-09-24T07:33:00.997Z,53230.3
2022-09-24T07:34:01.048Z,54707.7
2022-09-24T07:36:01.032Z,57439.5
2022-09-24T07:37:01.029Z,58693.9
2022-09-24T07:38:01.026Z,59699.5
2022-09-24T07:39:01.021Z,60705.0
2022-09-24T07:40:02.388Z,61710.5
2022-09-24T07:41:01.070Z,62485.6
2022-09-24T07:42:00.969Z,63260.7
2022-09-24T07:43:00.963Z,63813.7
2022-09-24T07:44:00.994Z,64366.7
2022-09-24T07:46:01.005Z,65227.3
2022-09-24T07:47:01.130Z,65535.0
2022-09-24T09:15:01.842Z,65535.0
2022-09-24T09:30:01.876Z,65535.0
2022-09-24T09:45:02.030Z,65535.0
2022-09-24T11:00:04.364Z,65535.0
2022-09-24T11:30:06.880Z,65535.0
2022-09-24T12:00:02.972Z,65535.0
2022-09-24T12:30:02.338Z,65535.0
2022-09-24T12:45:02.090Z,65535.0
2022-09-24T13:30:02.258Z,65535.0
2022-09-24T13:39:01.712Z,65303.0
2022-09-24T13:40:01.792Z,65071.0
2022-09-24T13:41:01.080Z,64333.4
2022-09-24T13:42:01.078Z,63595.8
2022-09-24T13:43:01.143Z,62858.2
2022-09-24T13:44:01.381Z,61788.5
2022-09-24T13:46:01.198Z,59480.1
2022-09-24T13:47:01.173Z,58241.4
2022-09-24T13:48:01.076Z,57002.7
2022-09-24T13:49:01.448Z,55638.4
2022-09-24T13:50:02.116Z,54274.1
2022-09-24T13:51:01.086Z,52802.7
2022-09-24T13:52:01.171Z,51331.3
2022-09-24T13:53:01.107Z,49859.9
2022-09-24T13:54:01.442Z,48617.2
2022-09-24T13:56:01.092Z,46612.9
2022-09-24T13:57:01.152Z,45851.3
2022-09-24T13:58:01.105Z,45089.7
2022-09-24T13:59:01.485Z,44579.7
2022-09-24T14:01:01.114Z,43648.7
2022-09-24T14:02:01.198Z,43227.7
2022-09-24T14:03:01.130Z,42806.7
2022-09-24T14:04:16.235Z,42479.1
2022-09-24T14:05:01.395Z,42151.4
2022-09-24T14:06:01.175Z,41971.9
2022-09-24T14:07:01.176Z,41792.3
2022-09-24T14:08:01.084Z,41612.8
2022-09-24T14:09:01.229Z,41454.9
2022-09-24T14:11:01.102Z,41036.1
2022-09-24T14:12:01.088Z,40775.1
2022-09-24T14:13:01.178Z,40514.1
2022-09-24T14:14:01.183Z,40139.9
2022-09-24T14:16:01.225Z,39314.9
2022-09-24T14:17:01.196Z,38864.1
2022-09-24T14:18:01.110Z,38413.3
2022-09-24T14:19:01.121Z,37842.4
2022-09-24T14:20:01.471Z,37271.5
2022-09-24T14:21:01.149Z,36483.5
2022-09-24T14:22:01.169Z,35695.4
2022-09-24T14:23:01.179Z,34907.3
2022-09-24T14:24:01.162Z,33914.2
2022-09-24T14:25:02.021Z,32921.1
2022-09-24T14:26:01.115Z,32033.6
2022-09-24T14:27:01.091Z,31146.1
2022-09-24T14:28:01.085Z,30258.7
2022-09-24T14:29:01.167Z,29581.9
2022-09-24T14:30:01.859Z,28905.2
2022-09-24T14:31:01.135Z,28384.6
2022-09-24T14:32:01.171Z,27864.0
2022-09-24T14:33:01.117Z,27343.4
2022-09-24T14:34:01.102Z,26862.5
2022-09-24T14:36:01.096Z,25903.3
2022-09-24T14:37:01.096Z,25424.9
2022-09-24T14:38:01.094Z,24946.5
2022-09-24T14:39:01.100Z,24492.3
2022-09-24T14:41:01.121Z,23473.1
2022-09-24T14:42:01.092Z,22908.2
2022-09-24T14:43:01.100Z,22343.3
2022-09-24T14:44:02.120Z,21648.0
2022-09-24T14:45:01.738Z,20952.7
2022-09-24T14:46:01.139Z,20147.3
2022-09-24T14:47:01.199Z,19341.9
2022-09-24T14:48:01.101Z,18536.5
2022-09-24T14:49:01.131Z,17751.9
2022-09-24T14:51:01.117Z,16300.9
2022-09-24T14:52:01.123Z,15634.4
2022-09-24T14:53:01.098Z,14967.9
2022-09-24T14:54:01.200Z,14430.1
2022-09-24T14:55:01.313Z,13892.3
2022-09-24T14:56:01.100Z,13467.9
2022-09-24T14:57:01.139Z,13043.5
2022-09-24T14:58:01.096Z,12619.1
2022-09-24T14:59:01.100Z,12300.5
2022-09-24T15:00:03.429Z,11981.8
2022-09-24T15:01:01.097Z,11774.8
2022-09-24T15:02:01.133Z,11567.8
2022-09-24T15:03:01.098Z,11360.8
2022-09-24T15:04:01.093Z,11254.6
2022-09-24T15:05:17.148Z,11148.4
2022-09-24T15:06:01.112Z,11101.0
2022-09-24T15:07:01.097Z,11053.6
2022-09-24T15:08:01.097Z,11006.2
2022-09-24T15:09:01.099Z,10987.5
2022-09-24T15:10:02.732Z,10968.7
2022-09-24T15:11:01.128Z,10949.7
2022-09-24T15:12:01.379Z,10930.7
2022-09-24T15:13:01.183Z,10911.7
2022-09-24T15:14:01.098Z,10852.2
2022-09-24T15:15:01.952Z,10792.7
2022-09-24T15:16:01.217Z,10683.4
2022-09-24T15:17:01.102Z,10574.1
2022-09-24T15:18:01.098Z,10464.9
2022-09-24T15:19:01.099Z,10306.2
2022-09-24T15:20:02.534Z,10147.5
2022-09-24T15:21:01.192Z,9940.5
2022-09-24T15:22:01.111Z,9733.5
2022-09-24T15:23:01.365Z,9526.5
2022-09-24T15:24:01.222Z,9276.3
2022-09-24T15:25:02.411Z,9026.0
2022-09-24T15:26:01.242Z,8761.0
2022-09-24T15:27:04.689Z,8496.0
2022-09-24T15:28:01.102Z,8231.0
2022-09-24T15:29:01.110Z,7996.6
2022-09-24T15:30:03.292Z,7762.2
2022-09-24T15:31:01.231Z,7580.1
2022-09-24T15:32:01.127Z,7397.9
2022-09-24T15:33:01.111Z,7215.8
2022-09-24T15:34:01.110Z,7108.5
2022-09-24T15:35:01.326Z,7001.1
2022-09-24T15:36:01.126Z,6986.1
2022-09-24T15:37:01.222Z,6971.0
2022-09-24T15:38:01.109Z,6955.9
2022-09-24T15:39:01.109Z,7033.9
2022-09-24T15:40:01.969Z,7111.9
2022-09-24T15:41:01.162Z,7263.1
2022-09-24T15:42:01.173Z,7414.3
2022-09-24T15:43:01.414Z,7565.5
2022-09-24T15:44:01.112Z,7762.7
2022-09-24T15:46:01.227Z,8166.2
2022-09-24T15:47:01.106Z,8372.5
2022-09-24T15:48:01.124Z,8578.7
2022-09-24T15:49:01.545Z,8751.5
2022-09-24T15:50:01.728Z,8924.2
2022-09-24T15:51:03.655Z,9041.9
2022-09-24T15:52:01.114Z,9159.5
2022-09-24T15:53:01.608Z,9277.2
2022-09-24T15:54:01.108Z,9340.5
2022-09-24T15:55:01.324Z,9403.9
2022-09-24T15:56:01.462Z,9416.7
2022-09-24T15:57:01.654Z,9429.6
2022-09-24T15:59:01.109Z,9438.9
2022-09-24T16:01:01.137Z,9413.7
2022-09-24T16:02:01.164Z,9394.9
2022-09-24T16:03:01.430Z,9376.2
2022-09-24T16:04:01.094Z,9385.7
2022-09-24T16:05:04.049Z,9394.3
2022-09-24T16:06:01.367Z,9447.6
2022-09-24T16:07:01.123Z,9508.7
2022-09-24T16:08:01.093Z,9569.9
2022-09-24T16:09:01.120Z,9679.0
2022-09-24T16:10:01.594Z,9797.8
2022-09-24T16:11:01.096Z,9965.5
2022-09-24T16:12:01.141Z,10144.7
2022-09-24T16:13:01.097Z,10324.0
2022-09-24T16:14:01.102Z,10560.5
2022-09-24T16:16:05.225Z,11064.9
2022-09-24T16:17:01.102Z,11332.9
2022-09-24T16:18:01.094Z,11600.9
2022-09-24T16:19:01.344Z,11882.0
2022-09-24T16:20:01.585Z,12163.1
2022-09-24T16:21:01.099Z,12458.7
2022-09-24T16:22:01.099Z,12754.4
2022-09-24T16:23:01.124Z,13050.1
2022-09-24T16:24:01.098Z,13365.7
2022-09-24T16:25:01.589Z,13681.4
2022-09-24T16:26:01.110Z,13979.5
2022-09-24T16:27:01.099Z,14277.5
2022-09-24T16:28:01.122Z,14575.6
2022-09-24T16:29:01.105Z,14799.1
2022-09-24T16:30:02.003Z,15022.7
2022-09-24T16:31:01.205Z,15210.5
2022-09-24T16:32:01.099Z,15398.3
2022-09-24T16:33:01.127Z,15586.1
2022-09-24T16:34:01.098Z,15748.7
2022-09-24T16:35:01.316Z,15911.3
2022-09-24T16:36:01.098Z,15956.9
2022-09-24T16:37:01.104Z,16002.5
2022-09-24T16:38:01.138Z,16048.1
2022-09-24T16:39:01.102Z,15936.5
2022-09-24T16:41:01.229Z,15604.2
2022-09-24T16:42:01.102Z,15383.5
2022-09-24T16:43:01.417Z,15162.9
2022-09-24T16:44:01.112Z,14808.3
2022-09-24T16:46:01.159Z,14010.1
2022-09-24T16:47:01.215Z,13566.3
2022-09-24T16:48:01.376Z,13122.6
2022-09-24T16:49:01.106Z,12522.9
2022-09-24T16:50:01.592Z,11923.1
2022-09-24T16:51:01.108Z,11237.6
2022-09-24T16:52:01.105Z,10552.1
2022-09-24T16:53:01.142Z,9866.5
2022-09-24T16:54:01.107Z,9153.1
2022-09-24T16:55:02.350Z,8439.6
2022-09-24T16:56:01.106Z,7745.7
2022-09-24T16:57:01.133Z,7051.9
2022-09-24T16:58:01.515Z,6358.0
2022-09-24T16:59:01.108Z,5787.5
2022-09-24T17:01:01.111Z,4719.1
2022-09-24T17:02:01.413Z,4221.2
2022-09-24T17:03:01.159Z,3723.3
2022-09-24T17:04:01.111Z,3328.3
2022-09-24T17:05:01.779Z,2933.4
2022-09-24T17:06:01.104Z,2654.8
2022-09-24T17:08:01.095Z,2376.2
2022-09-24T17:09:01.120Z,2101.7
2022-09-24T17:10:01.336Z,1944.3
2022-09-24T17:11:01.100Z,1789.1
2022-09-24T17:12:01.349Z,1692.1
2022-09-24T17:13:01.117Z,1595.1
2022-09-24T17:14:01.119Z,1482.3
2022-09-24T17:16:01.136Z,1304.5
2022-09-24T17:17:01.094Z,1215.7
2022-09-24T17:18:01.098Z,1127.0
2022-09-24T17:19:01.366Z,1029.2
2022-09-24T17:20:01.605Z,968.3
2022-09-24T17:21:01.350Z,900.9
2022-09-24T17:22:01.095Z,860.8
2022-09-24T17:23:01.095Z,820.7
2022-09-24T17:24:01.122Z,769.0
2022-09-24T17:26:01.353Z,655.8
2022-09-24T17:27:01.102Z,594.3
2022-09-24T17:28:01.347Z,532.7
2022-09-24T17:29:06.177Z,480.8
2022-09-24T17:31:01.431Z,388.2
2022-09-24T17:32:01.101Z,347.5
2022-09-24T17:33:01.098Z,306.9
2022-09-24T17:34:01.131Z,273.2
2022-09-24T17:36:01.101Z,210.9
2022-09-24T17:37:01.099Z,182.3
2022-09-24T17:38:01.105Z,153.7
2022-09-24T17:39:01.177Z,131.5
2022-09-24T17:40:06.958Z,109.3
2022-09-24T17:41:01.205Z,94.1
2022-09-24T17:42:01.106Z,78.9
2022-09-24T17:43:01.104Z,63.7
2022-09-24T17:44:01.408Z,54.3
2022-09-24T17:46:03.234Z,39.0
2022-09-24T17:47:01.504Z,33.1
2022-09-24T17:48:01.180Z,27.1
2022-09-24T17:49:01.566Z,23.1
2022-09-24T17:51:01.110Z,16.3
2022-09-24T17:52:01.397Z,13.7
2022-09-24T17:53:01.110Z,11.0
2022-09-24T17:54:01.142Z,9.3
2022-09-24T17:55:01.328Z,7.7
2022-09-24T17:56:01.368Z,6.6
2022-09-24T17:57:01.104Z,5.5
2022-09-24T17:58:01.109Z,4.5
2022-09-24T17:59:01.362Z,3.8
2022-09-24T18:01:01.137Z,2.7
2022-09-24T18:02:01.154Z,2.2
2022-09-24T18:03:06.114Z,1.7
2022-09-24T18:04:01.135Z,1.5
2022-09-24T18:05:01.663Z,1.2
2022-09-24T18:06:01.120Z,1.0
2022-09-24T18:07:01.107Z,0.8
2022-09-24T18:08:01.113Z,0.6
2022-09-24T18:09:01.213Z,0.5
2022-09-24T18:12:01.180Z,0.2
2022-09-24T18:13:01.114Z,0.1
